createdAt,value
2022-11-08T00:01:45.715Z,5.98
2022-11-08T00:04:16.546Z,6.06
2022-11-08T00:07:04.643Z,6.11
2022-11-08T00:09:51.796Z,6.17
2022-11-08T00:12:39.852Z,6.23
2022-11-08T00:15:10.632Z,6.27
2022-11-08T00:17:39.110Z,6.32
2022-11-08T00:20:11.517Z,6.36
2022-11-08T00:22:40.414Z,6.39
2022-11-08T00:25:11.353Z,6.44
2022-11-08T00:27:42.505Z,6.48
2022-11-08T00:30:16.605Z,6.51
2022-11-08T00:32:45.053Z,6.55
2022-11-08T00:35:13.841Z,6.58
2022-11-08T00:37:44.807Z,6.63
2022-11-08T00:40:14.032Z,6.67
2022-11-08T00:42:42.638Z,6.70
2022-11-08T00:45:13.956Z,6.71
2022-11-08T00:47:44.653Z,6.74
2022-11-08T00:50:14.367Z,6.75
2022-11-08T00:52:45.345Z,6.76
2022-11-08T00:55:13.856Z,6.78
2022-11-08T00:57:58.479Z,6.81
2022-11-08T01:00:28.574Z,6.84
2022-11-08T01:03:11.798Z,6.86
2022-11-08T01:05:40.421Z,6.89
2022-11-08T01:08:13.314Z,6.92
2022-11-08T01:10:42.835Z,6.95
2022-11-08T01:13:14.073Z,6.97
2022-11-08T01:15:46.550Z,7.00
2022-11-08T01:18:20.020Z,7.02
2022-11-08T01:20:50.900Z,7.04
2022-11-08T01:23:19.780Z,7.05
2022-11-08T01:25:51.727Z,7.07
2022-11-08T01:28:21.199Z,7.09
2022-11-08T01:30:50.770Z,7.11
2022-11-08T01:33:19.472Z,7.12
2022-11-08T01:35:48.045Z,7.13
2022-11-08T01:38:19.495Z,7.13
2022-11-08T01:40:53.571Z,7.13
2022-11-08T01:43:36.462Z,7.13
2022-11-08T01:46:41.128Z,7.14
2022-11-08T01:49:36.133Z,7.14
2022-11-08T01:52:20.714Z,7.13
2022-11-08T01:54:56.785Z,7.11
2022-11-08T01:57:28.574Z,7.10
2022-11-08T02:00:01.316Z,7.11
2022-11-08T02:02:38.800Z,7.11
2022-11-08T02:05:24.296Z,7.11
2022-11-08T02:07:59.208Z,7.12
2022-11-08T02:10:33.405Z,7.12
2022-11-08T02:13:05.217Z,7.13
2022-11-08T02:15:35.284Z,7.11
2022-11-08T02:18:04.174Z,7.10
2022-11-08T02:20:33.791Z,7.08
2022-11-08T02:23:11.782Z,7.07
2022-11-08T02:25:42.709Z,7.06
2022-11-08T02:28:12.616Z,7.06
2022-11-08T02:30:41.677Z,7.04
2022-11-08T02:33:20.577Z,7.05
2022-11-08T02:35:51.686Z,7.04
2022-11-08T02:38:21.045Z,7.05
2022-11-08T02:40:55.268Z,7.07
2022-11-08T02:43:26.145Z,7.09
2022-11-08T02:45:59.158Z,7.10
2022-11-08T02:48:31.170Z,7.11
2022-11-08T02:51:00.805Z,7.13
2022-11-08T02:53:34.450Z,7.14
2022-11-08T02:56:03.066Z,7.17
2022-11-08T02:58:31.597Z,7.20
2022-11-08T03:01:00.165Z,7.20
2022-11-08T03:03:29.481Z,7.21
2022-11-08T03:05:58.088Z,7.23
2022-11-08T03:08:29.495Z,7.24
2022-11-08T03:10:59.955Z,7.26
2022-11-08T03:13:30.180Z,7.28
2022-11-08T03:16:01.263Z,7.29
2022-11-08T03:18:30.742Z,7.29
2022-11-08T03:21:00.522Z,7.30
2022-11-08T03:23:31.161Z,7.31
2022-11-08T03:26:02.419Z,7.31
2022-11-08T03:28:31.092Z,7.32
2022-11-08T03:30:59.682Z,7.32
2022-11-08T03:33:28.881Z,7.32
2022-11-08T03:35:57.718Z,7.33
2022-11-08T03:38:26.384Z,7.33
2022-11-08T03:40:57.853Z,7.33
2022-11-08T03:43:27.465Z,7.32
2022-11-08T03:45:56.030Z,7.33
2022-11-08T03:48:24.513Z,7.30
2022-11-08T03:50:53.165Z,7.30
2022-11-08T03:53:21.754Z,7.30
2022-11-08T03:55:52.507Z,7.29
2022-11-08T03:58:21.276Z,7.29
2022-11-08T04:00:51.045Z,7.27
2022-11-08T04:03:19.780Z,7.26
2022-11-08T04:05:48.226Z,7.27
2022-11-08T04:08:18.370Z,7.26
2022-11-08T04:10:47.470Z,7.26
2022-11-08T04:13:34.835Z,7.28
2022-11-08T04:16:03.893Z,7.26
2022-11-08T04:18:52.241Z,7.27
2022-11-08T04:21:24.271Z,7.26
2022-11-08T04:23:56.076Z,7.24
2022-11-08T04:26:27.156Z,7.24
2022-11-08T04:28:55.720Z,7.22
2022-11-08T04:31:26.172Z,7.22
2022-11-08T04:33:55.828Z,7.19
2022-11-08T04:36:24.307Z,7.16
2022-11-08T04:38:54.068Z,7.11
2022-11-08T04:41:24.491Z,7.08
2022-11-08T04:43:56.110Z,7.04
2022-11-08T04:46:30.999Z,7.00
2022-11-08T04:49:03.965Z,6.95
2022-11-08T04:51:33.543Z,6.90
2022-11-08T04:54:05.871Z,6.86
2022-11-08T04:56:34.774Z,6.82
2022-11-08T04:59:07.271Z,6.76
2022-11-08T05:01:41.069Z,6.72
2022-11-08T05:04:10.184Z,6.69
2022-11-08T05:06:39.071Z,6.63
2022-11-08T05:09:08.027Z,6.59
2022-11-08T05:11:38.952Z,6.56
2022-11-08T05:14:07.550Z,6.52
2022-11-08T05:16:39.746Z,6.49
2022-11-08T05:19:13.017Z,6.46
2022-11-08T05:22:02.355Z,6.40
2022-11-08T05:24:31.537Z,6.35
2022-11-08T05:27:01.265Z,6.30
2022-11-08T05:29:34.844Z,6.27
2022-11-08T05:32:06.589Z,6.24
2022-11-08T05:34:40.792Z,6.22
2022-11-08T05:37:08.890Z,6.18
2022-11-08T05:39:38.180Z,6.15
2022-11-08T05:42:07.482Z,6.14
2022-11-08T05:44:36.049Z,6.13
2022-11-08T05:47:05.472Z,6.11
2022-11-08T05:49:34.065Z,6.10
2022-11-08T05:52:07.336Z,6.08
2022-11-08T05:54:36.164Z,6.07
2022-11-08T05:57:05.025Z,6.07
2022-11-08T05:59:39.010Z,6.06
2022-11-08T06:02:07.753Z,6.05
2022-11-08T06:04:36.587Z,6.04
2022-11-08T06:07:05.677Z,6.02
2022-11-08T06:09:36.798Z,6.02
2022-11-08T06:12:07.083Z,6.03
2022-11-08T06:14:36.644Z,6.04
2022-11-08T06:17:06.472Z,6.07
2022-11-08T06:19:35.596Z,6.06
2022-11-08T06:22:04.362Z,6.09
2022-11-08T06:24:33.192Z,6.12
2022-11-08T06:27:02.052Z,6.18
2022-11-08T06:29:33.479Z,6.25
2022-11-08T06:32:02.496Z,6.34
2022-11-08T06:34:31.768Z,6.43
2022-11-08T06:37:00.543Z,6.53
2022-11-08T06:39:32.536Z,6.62
2022-11-08T06:42:01.425Z,6.74
2022-11-08T06:44:30.031Z,6.82
2022-11-08T06:46:59.336Z,6.91
2022-11-08T06:49:31.096Z,7.00
2022-11-08T06:51:59.573Z,7.09
2022-11-08T06:54:30.812Z,7.18
2022-11-08T06:57:01.616Z,7.26
2022-11-08T06:59:30.193Z,7.36
2022-11-08T07:01:58.882Z,7.45
2022-11-08T07:04:27.514Z,7.53
2022-11-08T07:06:59.125Z,7.63
2022-11-08T07:09:27.736Z,7.75
2022-11-08T07:11:56.973Z,7.87
2022-11-08T07:14:25.525Z,8.01
2022-11-08T07:16:54.010Z,8.16
2022-11-08T07:19:22.531Z,8.30
2022-11-08T07:21:53.154Z,8.39
2022-11-08T07:24:21.605Z,8.43
2022-11-08T07:26:52.084Z,8.46
2022-11-08T07:29:20.848Z,8.44
2022-11-08T07:31:49.373Z,8.47
2022-11-08T07:34:18.826Z,8.50
2022-11-08T07:36:47.328Z,8.55
2022-11-08T07:39:16.183Z,8.60
2022-11-08T07:41:44.768Z,8.65
2022-11-08T07:44:13.395Z,8.70
2022-11-08T07:46:41.885Z,8.77
2022-11-08T07:49:10.527Z,8.83
2022-11-08T07:51:38.949Z,8.90
2022-11-08T07:54:07.431Z,8.96
2022-11-08T07:56:35.967Z,9.03
2022-11-08T07:59:04.788Z,9.09
2022-11-08T08:01:35.208Z,9.14
2022-11-08T08:04:04.285Z,9.32
2022-11-08T08:06:32.911Z,9.72
2022-11-08T08:09:01.486Z,10.32
2022-11-08T08:11:33.620Z,10.63
2022-11-08T08:14:02.544Z,11.24
2022-11-08T08:16:34.513Z,11.33
2022-11-08T08:19:03.504Z,11.53
2022-11-08T08:21:32.092Z,11.89
2022-11-08T08:24:00.566Z,12.19
2022-11-08T08:26:29.313Z,12.26
2022-11-08T08:28:57.797Z,12.47
2022-11-08T08:31:26.289Z,13.96
2022-11-08T08:33:54.713Z,15.12
2022-11-08T08:36:23.239Z,15.72
2022-11-08T08:38:53.274Z,15.14
2022-11-08T08:41:21.769Z,14.52
2022-11-08T08:43:51.660Z,14.15
2022-11-08T08:46:20.204Z,13.94
2022-11-08T08:48:49.534Z,13.66
2022-11-08T08:51:21.148Z,13.39
2022-11-08T08:53:50.030Z,13.18
2022-11-08T08:56:19.179Z,12.97
2022-11-08T09:01:42.444Z,12.73
2022-11-08T09:04:10.947Z,12.67
2022-11-08T09:06:39.526Z,12.62
2022-11-08T09:09:08.012Z,12.58
2022-11-08T09:11:39.565Z,12.57
2022-11-08T09:14:08.106Z,12.55
2022-11-08T09:16:38.924Z,12.56
2022-11-08T09:19:07.439Z,12.61
2022-11-08T09:21:35.964Z,12.64
2022-11-08T09:24:05.006Z,12.69
2022-11-08T09:26:34.198Z,12.75
2022-11-08T09:29:02.683Z,12.85
2022-11-08T09:31:35.828Z,13.05
2022-11-08T09:34:06.816Z,15.10
2022-11-08T09:36:35.369Z,17.24
2022-11-08T09:39:04.091Z,18.07
2022-11-08T09:41:57.457Z,19.52
2022-11-08T09:44:55.186Z,21.26
2022-11-08T09:47:26.776Z,22.29
2022-11-08T09:50:02.742Z,22.82
2022-11-08T09:52:34.562Z,23.42
2022-11-08T09:55:16.540Z,24.05
2022-11-08T09:57:55.870Z,24.47
2022-11-08T10:00:24.911Z,24.76
2022-11-08T10:02:53.803Z,24.90
2022-11-08T10:05:22.604Z,25.18
2022-11-08T10:07:58.395Z,25.44
2022-11-08T10:11:04.459Z,25.49
2022-11-08T10:13:43.795Z,25.52
2022-11-08T10:16:27.664Z,25.56
2022-11-08T10:19:02.188Z,25.54
2022-11-08T10:21:46.616Z,25.53
2022-11-08T10:24:23.976Z,25.13
2022-11-08T10:26:54.969Z,24.73
2022-11-08T10:29:27.038Z,24.24
2022-11-08T10:32:02.604Z,23.64
2022-11-08T10:34:39.550Z,23.12
2022-11-08T10:37:14.951Z,22.42
2022-11-08T10:39:54.292Z,21.74
2022-11-08T10:42:34.512Z,21.18
2022-11-08T10:45:03.278Z,20.55
2022-11-08T10:47:33.726Z,20.13
2022-11-08T10:50:06.392Z,19.74
2022-11-08T10:52:40.704Z,19.52
2022-11-08T10:55:22.641Z,19.27
2022-11-08T10:57:53.981Z,18.91
2022-11-08T11:00:29.661Z,18.58
2022-11-08T11:03:00.294Z,18.24
2022-11-08T11:05:32.829Z,18.04
2022-11-08T11:08:15.625Z,17.84
2022-11-08T11:10:46.333Z,17.65
2022-11-08T11:13:20.401Z,17.52
2022-11-08T11:15:52.830Z,17.47
2022-11-08T11:18:33.631Z,17.34
2022-11-08T11:21:07.227Z,17.16
2022-11-08T11:23:43.541Z,17.02
2022-11-08T11:26:34.085Z,16.89
2022-11-08T11:29:16.580Z,16.79
2022-11-08T11:31:47.220Z,16.74
2022-11-08T11:34:40.273Z,16.66
2022-11-08T11:37:20.430Z,16.55
2022-11-08T11:39:59.962Z,16.48
2022-11-08T11:42:49.365Z,16.42
2022-11-08T11:45:25.051Z,16.39
2022-11-08T11:47:55.727Z,16.40
2022-11-08T11:50:32.071Z,16.39
2022-11-08T11:53:04.346Z,16.33
2022-11-08T11:56:06.312Z,16.31
2022-11-08T11:58:57.972Z,16.26
2022-11-08T12:01:50.887Z,16.17
2022-11-08T12:04:37.205Z,16.10
2022-11-08T12:07:11.724Z,16.03
2022-11-08T12:09:54.448Z,15.94
2022-11-08T12:12:49.598Z,15.88
2022-11-08T12:15:26.639Z,15.85
2022-11-08T12:18:37.009Z,15.84
2022-11-08T12:21:12.047Z,15.80
2022-11-08T12:24:01.143Z,15.74
2022-11-08T12:26:40.031Z,15.68
2022-11-08T12:29:22.621Z,15.60
2022-11-08T12:32:21.118Z,15.55
2022-11-08T12:35:08.243Z,15.51
2022-11-08T12:37:50.757Z,15.47
2022-11-08T12:40:27.323Z,15.42
2022-11-08T12:43:08.549Z,15.37
2022-11-08T12:45:55.574Z,15.32
2022-11-08T12:48:40.147Z,15.25
2022-11-08T12:51:22.601Z,15.20
2022-11-08T12:54:08.486Z,15.14
2022-11-08T12:56:43.062Z,15.07
2022-11-08T12:59:20.305Z,15.02
2022-11-08T13:01:49.944Z,14.92
2022-11-08T13:04:38.696Z,14.85
2022-11-08T13:07:24.919Z,14.79
2022-11-08T13:10:00.455Z,14.73
2022-11-08T13:12:40.886Z,14.70
2022-11-08T13:15:18.661Z,14.64
2022-11-08T13:18:23.618Z,14.59
2022-11-08T13:20:55.302Z,14.53
2022-11-08T13:23:30.501Z,14.49
2022-11-08T13:26:19.989Z,14.42
2022-11-08T13:28:49.936Z,14.36
2022-11-08T13:31:36.910Z,14.30
2022-11-08T13:34:32.348Z,14.25
2022-11-08T13:37:17.336Z,14.19
2022-11-08T13:40:00.427Z,14.13
2022-11-08T13:42:37.909Z,14.09
2022-11-08T13:45:25.748Z,14.03
2022-11-08T13:47:58.364Z,13.98
2022-11-08T13:50:54.710Z,13.92
2022-11-08T13:53:57.338Z,13.84
2022-11-08T13:56:48.920Z,13.80
2022-11-08T13:59:55.007Z,13.73
2022-11-08T14:02:45.048Z,13.68
2022-11-08T14:05:24.777Z,13.62
2022-11-08T14:08:18.850Z,13.56
2022-11-08T14:11:22.310Z,13.51
2022-11-08T14:14:05.476Z,13.43
2022-11-08T14:16:47.281Z,13.39
2022-11-08T14:19:22.532Z,13.34
2022-11-08T14:21:59.818Z,13.28
2022-11-08T14:24:31.286Z,13.23
2022-11-08T14:27:00.554Z,13.16
2022-11-08T14:29:29.817Z,13.09
2022-11-08T14:32:07.275Z,13.02
2022-11-08T14:34:40.025Z,12.95
2022-11-08T14:37:17.130Z,12.86
2022-11-08T14:39:47.879Z,12.77
2022-11-08T14:42:23.082Z,12.69
2022-11-08T14:44:58.409Z,12.61
2022-11-08T14:47:32.234Z,12.51
2022-11-08T14:50:01.123Z,12.42
2022-11-08T14:52:31.592Z,12.32
2022-11-08T14:55:04.972Z,12.23
2022-11-08T14:57:37.919Z,12.13
2022-11-08T15:00:16.312Z,12.04
2022-11-08T15:02:49.148Z,11.94
2022-11-08T15:05:42.406Z,11.85
2022-11-08T15:08:22.740Z,11.73
2022-11-08T15:10:59.137Z,11.61
2022-11-08T15:13:34.484Z,11.49
2022-11-08T15:16:06.942Z,11.37
2022-11-08T15:18:41.387Z,11.21
2022-11-08T15:21:26.986Z,11.01
2022-11-08T15:24:11.303Z,10.82
2022-11-08T15:26:41.113Z,10.62
2022-11-08T15:29:18.944Z,10.46
2022-11-08T15:31:56.980Z,10.33
2022-11-08T15:34:45.155Z,10.25
2022-11-08T15:37:21.741Z,10.17
2022-11-08T15:39:53.311Z,10.11
2022-11-08T15:42:22.480Z,10.05
2022-11-08T15:45:04.702Z,9.98
2022-11-08T15:47:39.153Z,9.92
2022-11-08T15:50:17.629Z,9.81
2022-11-08T15:52:51.714Z,9.71
2022-11-08T15:55:22.327Z,9.62
2022-11-08T15:57:55.812Z,9.51
2022-11-08T16:00:25.983Z,9.44
2022-11-08T16:02:55.359Z,9.38
2022-11-08T16:05:25.739Z,9.33
2022-11-08T16:07:55.221Z,9.26
2022-11-08T16:10:29.605Z,9.21
2022-11-08T16:13:06.289Z,9.15
2022-11-08T16:15:38.793Z,9.08
2022-11-08T16:18:10.267Z,9.04
2022-11-08T16:20:39.259Z,9.00
2022-11-08T16:23:09.728Z,8.94
2022-11-08T16:25:43.173Z,8.91
2022-11-08T16:28:20.953Z,8.86
2022-11-08T16:30:52.223Z,8.81
2022-11-08T16:33:23.363Z,8.76
2022-11-08T16:35:55.652Z,8.72
2022-11-08T16:38:27.582Z,8.67
2022-11-08T16:40:57.128Z,8.62
2022-11-08T16:43:25.671Z,8.59
2022-11-08T16:46:10.717Z,8.54
2022-11-08T16:51:24.684Z,8.46
2022-11-08T16:53:56.830Z,8.42
2022-11-08T16:56:25.467Z,8.38
2022-11-08T16:58:54.145Z,8.33
2022-11-08T17:01:30.611Z,8.27
2022-11-08T17:04:06.506Z,8.21
2022-11-08T17:06:35.270Z,8.16
2022-11-08T17:09:04.015Z,8.13
2022-11-08T17:11:34.442Z,8.10
2022-11-08T17:14:06.034Z,8.07
2022-11-08T17:16:40.398Z,8.04
2022-11-08T17:19:08.976Z,7.99
2022-11-08T17:21:45.744Z,7.97
2022-11-08T17:24:21.657Z,7.92
2022-11-08T17:26:53.498Z,7.87
2022-11-08T17:29:24.646Z,7.84
2022-11-08T17:31:56.674Z,7.79
2022-11-08T17:34:26.773Z,7.75
2022-11-08T17:36:55.542Z,7.70
2022-11-08T17:39:23.980Z,7.65
2022-11-08T17:41:54.801Z,7.61
2022-11-08T17:44:23.404Z,7.57
2022-11-08T17:46:54.128Z,7.52
2022-11-08T17:49:22.749Z,7.49
2022-11-08T17:51:54.159Z,7.47
2022-11-08T17:54:22.709Z,7.45
2022-11-08T17:56:55.011Z,7.44
2022-11-08T17:59:23.716Z,7.42
2022-11-08T18:01:55.015Z,7.39
2022-11-08T18:04:23.597Z,7.37
2022-11-08T18:06:54.908Z,7.36
2022-11-08T18:09:23.930Z,7.35
2022-11-08T18:11:53.659Z,7.33
2022-11-08T18:14:28.239Z,7.30
2022-11-08T18:16:59.221Z,7.27
2022-11-08T18:19:28.179Z,7.24
2022-11-08T18:21:56.682Z,7.22
2022-11-08T18:24:25.211Z,7.21
2022-11-08T18:26:53.912Z,7.20
2022-11-08T18:29:23.294Z,7.18
2022-11-08T18:32:01.298Z,7.14
2022-11-08T18:34:34.040Z,7.11
2022-11-08T18:37:02.663Z,7.08
2022-11-08T18:39:33.974Z,7.07
2022-11-08T18:42:04.515Z,7.06
2022-11-08T18:44:33.834Z,7.04
2022-11-08T18:47:04.912Z,7.03
2022-11-08T18:49:33.589Z,7.03
2022-11-08T18:52:03.788Z,7.04
2022-11-08T18:54:33.343Z,7.04
2022-11-08T18:57:19.947Z,7.05
2022-11-08T18:59:49.167Z,7.04
2022-11-08T19:02:18.461Z,7.04
2022-11-08T19:05:23.614Z,7.02
2022-11-08T19:08:09.560Z,7.00
2022-11-08T19:10:54.318Z,7.00
2022-11-08T19:13:29.585Z,6.99
2022-11-08T19:16:13.821Z,6.96
2022-11-08T19:18:57.731Z,6.94
2022-11-08T19:21:27.929Z,6.91
2022-11-08T19:23:59.147Z,6.90
2022-11-08T19:26:29.250Z,6.91
2022-11-08T19:28:58.245Z,6.90
2022-11-08T19:31:30.048Z,6.91
2022-11-08T19:34:08.757Z,6.89
2022-11-08T19:36:43.009Z,6.89
2022-11-08T19:39:13.274Z,6.87
2022-11-08T19:42:11.843Z,6.87
2022-11-08T19:44:40.494Z,6.86
2022-11-08T19:47:09.481Z,6.85
2022-11-08T19:49:39.339Z,6.84
2022-11-08T19:52:43.411Z,6.82
2022-11-08T19:55:12.313Z,6.79
2022-11-08T19:57:41.446Z,6.77
2022-11-08T20:00:14.935Z,6.75
2022-11-08T20:02:43.983Z,6.73
2022-11-08T20:05:12.877Z,6.71
2022-11-08T20:07:45.358Z,6.70
2022-11-08T20:10:14.899Z,6.67
2022-11-08T20:12:43.924Z,6.67
2022-11-08T20:15:13.031Z,6.65
2022-11-08T20:17:42.073Z,6.64
2022-11-08T20:20:13.596Z,6.65
2022-11-08T20:22:47.837Z,6.63
2022-11-08T20:25:16.969Z,6.61
2022-11-08T20:27:45.569Z,6.61
2022-11-08T20:30:14.634Z,6.62
2022-11-08T20:32:46.019Z,6.60
2022-11-08T20:35:19.220Z,6.59
2022-11-08T20:37:55.926Z,6.59
2022-11-08T20:40:24.423Z,6.58
2022-11-08T20:42:54.098Z,6.56
2022-11-08T20:45:22.707Z,6.52
2022-11-08T20:47:52.477Z,6.51
2022-11-08T20:50:21.051Z,6.51
2022-11-08T20:52:49.692Z,6.48
2022-11-08T20:55:20.302Z,6.47
2022-11-08T20:57:49.700Z,6.47
2022-11-08T21:00:32.917Z,6.46
2022-11-08T21:03:09.572Z,6.44
2022-11-08T21:05:40.779Z,6.45
2022-11-08T21:11:05.115Z,6.46
2022-11-08T21:13:38.694Z,6.45
2022-11-08T21:16:28.840Z,6.42
2022-11-08T21:19:06.513Z,6.38
2022-11-08T21:21:39.167Z,6.36
2022-11-08T21:24:09.651Z,6.34
2022-11-08T21:26:40.077Z,6.32
2022-11-08T21:29:11.539Z,6.29
2022-11-08T21:31:43.313Z,6.27
2022-11-08T21:34:12.330Z,6.23
2022-11-08T21:36:41.174Z,6.20
2022-11-08T21:39:11.228Z,6.18
2022-11-08T21:41:42.548Z,6.15
2022-11-08T21:44:11.512Z,6.13
2022-11-08T21:46:43.399Z,6.11
2022-11-08T21:49:13.404Z,6.09
2022-11-08T21:51:42.184Z,6.07
2022-11-08T21:54:12.370Z,6.03
2022-11-08T21:56:42.533Z,6.00
2022-11-08T21:59:12.088Z,5.98
2022-11-08T22:01:41.300Z,5.97
2022-11-08T22:04:10.356Z,5.94
2022-11-08T22:06:46.395Z,5.92
2022-11-08T22:09:16.427Z,5.88
2022-11-08T22:11:45.217Z,5.87
2022-11-08T22:14:14.310Z,5.86
2022-11-08T22:16:43.251Z,5.83
2022-11-08T22:19:12.702Z,5.78
2022-11-08T22:21:43.746Z,5.74
2022-11-08T22:24:14.689Z,5.71
2022-11-08T22:26:43.848Z,5.69
2022-11-08T22:29:13.346Z,5.67
2022-11-08T22:31:42.516Z,5.66
2022-11-08T22:34:12.108Z,5.62
2022-11-08T22:36:45.901Z,5.64
2022-11-08T22:39:19.930Z,5.66
2022-11-08T22:41:53.003Z,5.67
2022-11-08T22:44:22.308Z,5.66
2022-11-08T22:46:53.397Z,5.64
2022-11-08T22:49:22.264Z,5.65
2022-11-08T22:51:53.998Z,5.66
2022-11-08T22:54:22.920Z,5.64
2022-11-08T22:56:54.452Z,5.62
2022-11-08T22:59:23.949Z,5.61
2022-11-08T23:01:54.997Z,5.60
2022-11-08T23:04:25.551Z,5.59
2022-11-08T23:06:54.468Z,5.58
2022-11-08T23:09:23.333Z,5.55
2022-11-08T23:12:13.804Z,5.53
2022-11-08T23:15:02.484Z,5.49
2022-11-08T23:17:31.441Z,5.47
2022-11-08T23:20:19.946Z,5.46
2022-11-08T23:23:07.434Z,5.45
2022-11-08T23:25:36.367Z,5.41
2022-11-08T23:28:35.396Z,5.39
2022-11-08T23:31:22.735Z,5.37
2022-11-08T23:33:53.987Z,5.33
2022-11-08T23:36:22.747Z,5.29
2022-11-08T23:38:53.651Z,5.27
2022-11-08T23:41:41.044Z,5.24
2022-11-08T23:44:27.278Z,5.20
2022-11-08T23:46:58.071Z,5.17
2022-11-08T23:49:26.867Z,5.13
2022-11-08T23:51:55.625Z,5.09
2022-11-08T23:54:24.141Z,5.05
2022-11-08T23:56:54.220Z,5.04
2022-11-08T23:59:22.683Z,5.02
